createdAt,value
2022-10-23T00:01:20.794Z,100.00
2022-10-23T00:03:47.884Z,100.00
2022-10-23T00:06:14.749Z,100.00
2022-10-23T00:08:41.675Z,100.00
2022-10-23T00:11:13.133Z,100.00
2022-10-23T00:13:40.080Z,100.00
2022-10-23T00:16:07.551Z,100.00
2022-10-23T00:18:34.178Z,100.00
2022-10-23T00:21:01.049Z,100.00
2022-10-23T00:23:27.563Z,100.00
2022-10-23T00:25:54.037Z,100.00
2022-10-23T00:28:20.683Z,100.00
2022-10-23T00:30:47.253Z,100.00
2022-10-23T00:33:13.794Z,99.96
2022-10-23T00:35:41.367Z,100.00
2022-10-23T00:38:08.763Z,100.00
2022-10-23T00:40:36.205Z,100.00
2022-10-23T00:43:02.823Z,100.00
2022-10-23T00:45:33.804Z,100.00
2022-10-23T00:48:01.526Z,100.00
2022-10-23T00:50:31.254Z,100.00
2022-10-23T00:52:59.848Z,100.00
2022-10-23T00:55:27.190Z,99.92
2022-10-23T00:57:53.740Z,100.00
2022-10-23T01:00:20.169Z,99.72
2022-10-23T01:02:46.907Z,100.00
2022-10-23T01:05:13.544Z,100.00
2022-10-23T01:07:45.627Z,99.98
2022-10-23T01:10:15.781Z,100.00
2022-10-23T01:13:02.731Z,100.00
2022-10-23T01:15:42.688Z,100.00
2022-10-23T01:18:17.561Z,100.00
2022-10-23T01:20:47.102Z,100.00
2022-10-23T01:23:16.494Z,100.00
2022-10-23T01:26:04.701Z,100.00
2022-10-23T01:28:35.000Z,99.97
2022-10-23T01:31:02.900Z,100.00
2022-10-23T01:33:35.447Z,100.00
2022-10-23T01:36:05.703Z,100.00
2022-10-23T01:38:53.512Z,100.00
2022-10-23T01:41:26.691Z,100.00
2022-10-23T01:44:07.197Z,100.00
2022-10-23T01:46:35.811Z,100.00
2022-10-23T01:49:03.248Z,100.00
2022-10-23T01:51:31.234Z,100.00
2022-10-23T01:53:59.709Z,100.00
2022-10-23T01:56:29.513Z,100.00
2022-10-23T01:58:58.340Z,100.00
2022-10-23T02:01:26.764Z,100.00
2022-10-23T02:03:54.134Z,100.00
2022-10-23T02:06:20.685Z,100.00
2022-10-23T02:08:47.198Z,100.00
2022-10-23T02:11:16.736Z,100.00
2022-10-23T02:13:52.544Z,100.00
2022-10-23T02:16:42.225Z,100.00
2022-10-23T02:19:21.858Z,100.00
2022-10-23T02:22:17.678Z,100.00
2022-10-23T02:25:07.453Z,100.00
2022-10-23T02:27:43.516Z,100.00
2022-10-23T02:30:12.497Z,100.00
2022-10-23T02:32:42.710Z,100.00
2022-10-23T02:35:10.683Z,100.00
2022-10-23T02:37:37.318Z,100.00
2022-10-23T02:40:04.518Z,100.00
2022-10-23T02:42:41.206Z,100.00
2022-10-23T02:45:18.565Z,100.00
2022-10-23T02:48:09.831Z,100.00
2022-10-23T02:50:40.068Z,100.00
2022-10-23T02:53:40.052Z,100.00
2022-10-23T02:56:18.396Z,100.00
2022-10-23T02:58:49.235Z,99.97
2022-10-23T03:01:21.650Z,100.00
2022-10-23T03:03:57.636Z,100.00
2022-10-23T03:06:24.592Z,100.00
2022-10-23T03:08:58.711Z,100.00
2022-10-23T03:11:25.502Z,100.00
2022-10-23T03:13:52.265Z,100.00
2022-10-23T03:16:18.788Z,100.00
2022-10-23T03:18:45.237Z,100.00
2022-10-23T03:21:11.743Z,100.00
2022-10-23T03:23:38.350Z,100.00
2022-10-23T03:26:04.954Z,100.00
2022-10-23T03:28:31.471Z,100.00
2022-10-23T03:30:58.001Z,100.00
2022-10-23T03:33:24.479Z,100.00
2022-10-23T03:35:50.905Z,100.00
2022-10-23T03:38:17.395Z,100.00
2022-10-23T03:40:43.873Z,100.00
2022-10-23T03:43:10.315Z,100.00
2022-10-23T03:45:38.563Z,100.00
2022-10-23T03:48:06.034Z,100.00
2022-10-23T03:50:32.766Z,100.00
2022-10-23T03:52:59.239Z,100.00
2022-10-23T03:55:27.102Z,100.00
2022-10-23T03:57:54.505Z,100.00
2022-10-23T04:00:21.469Z,100.00
2022-10-23T04:02:48.261Z,100.00
2022-10-23T04:05:15.033Z,100.00
2022-10-23T04:07:41.801Z,100.00
2022-10-23T04:10:08.685Z,100.00
2022-10-23T04:12:37.887Z,100.00
2022-10-23T04:15:04.988Z,100.00
2022-10-23T04:17:31.464Z,100.00
2022-10-23T04:19:57.922Z,100.00
2022-10-23T04:22:27.485Z,100.00
2022-10-23T04:24:55.001Z,100.00
2022-10-23T04:27:21.743Z,100.00
2022-10-23T04:29:49.417Z,100.00
2022-10-23T04:32:16.087Z,100.00
2022-10-23T04:34:42.599Z,100.00
2022-10-23T04:37:09.128Z,100.00
2022-10-23T04:39:35.724Z,100.00
2022-10-23T04:42:02.203Z,100.00
2022-10-23T04:44:28.678Z,100.00
2022-10-23T04:46:55.176Z,100.00
2022-10-23T04:49:21.671Z,100.00
2022-10-23T04:51:48.211Z,100.00
2022-10-23T04:54:14.752Z,100.00
2022-10-23T04:56:41.268Z,100.00
2022-10-23T04:59:07.857Z,100.00
2022-10-23T05:01:34.485Z,100.00
2022-10-23T05:04:01.080Z,100.00
2022-10-23T05:06:27.672Z,100.00
2022-10-23T05:08:54.363Z,100.00
2022-10-23T05:11:20.912Z,99.53
2022-10-23T05:13:47.952Z,99.97
2022-10-23T05:16:43.266Z,100.00
2022-10-23T05:19:11.110Z,100.00
2022-10-23T05:21:38.411Z,100.00
2022-10-23T05:24:05.215Z,100.00
2022-10-23T05:26:32.136Z,100.00
2022-10-23T05:28:58.769Z,100.00
2022-10-23T05:31:25.650Z,100.00
2022-10-23T05:33:54.519Z,100.00
2022-10-23T05:36:22.401Z,100.00
2022-10-23T05:38:48.975Z,100.00
2022-10-23T05:41:15.553Z,100.00
2022-10-23T05:43:42.065Z,100.00
2022-10-23T05:46:09.145Z,100.00
2022-10-23T05:48:35.791Z,100.00
2022-10-23T05:51:06.940Z,100.00
2022-10-23T05:53:34.574Z,100.00
2022-10-23T05:56:09.975Z,100.00
2022-10-23T05:58:36.659Z,100.00
2022-10-23T06:01:08.261Z,100.00
2022-10-23T06:03:35.674Z,100.00
2022-10-23T06:06:02.252Z,100.00
2022-10-23T06:08:29.796Z,100.00
2022-10-23T06:10:56.388Z,100.00
2022-10-23T06:13:22.952Z,100.00
2022-10-23T06:15:49.483Z,100.00
2022-10-23T06:18:16.069Z,100.00
2022-10-23T06:20:42.733Z,100.00
2022-10-23T06:23:09.241Z,100.00
2022-10-23T06:25:35.837Z,100.00
2022-10-23T06:28:02.429Z,100.00
2022-10-23T06:30:28.986Z,100.00
2022-10-23T06:32:55.653Z,100.00
2022-10-23T06:35:22.209Z,100.00
2022-10-23T06:37:48.694Z,100.00
2022-10-23T06:40:15.506Z,100.00
2022-10-23T06:42:42.287Z,100.00
2022-10-23T06:45:09.408Z,100.00
2022-10-23T06:47:36.001Z,100.00
2022-10-23T06:50:02.552Z,100.00
2022-10-23T06:52:47.902Z,100.00
2022-10-23T06:55:14.979Z,100.00
2022-10-23T06:57:42.347Z,100.00
2022-10-23T07:00:09.907Z,100.00
2022-10-23T07:02:36.776Z,100.00
2022-10-23T07:05:03.998Z,100.00
2022-10-23T07:07:32.110Z,100.00
2022-10-23T07:09:58.868Z,100.00
2022-10-23T07:12:25.441Z,100.00
2022-10-23T07:14:51.893Z,100.00
2022-10-23T07:17:18.423Z,100.00
2022-10-23T07:19:46.515Z,100.00
2022-10-23T07:22:15.758Z,100.00
2022-10-23T07:24:42.736Z,100.00
2022-10-23T07:27:09.204Z,100.00
2022-10-23T07:29:35.861Z,100.00
2022-10-23T07:32:02.538Z,100.00
2022-10-23T07:34:29.032Z,100.00
2022-10-23T07:36:56.989Z,100.00
2022-10-23T07:39:23.656Z,100.00
2022-10-23T07:41:51.089Z,100.00
2022-10-23T07:44:18.138Z,100.00
2022-10-23T07:46:44.876Z,100.00
2022-10-23T07:49:11.467Z,100.00
2022-10-23T07:51:37.998Z,100.00
2022-10-23T07:54:04.541Z,100.00
2022-10-23T07:56:31.450Z,100.00
2022-10-23T07:58:57.982Z,100.00
2022-10-23T08:01:33.193Z,100.00
2022-10-23T08:04:00.398Z,100.00
2022-10-23T08:06:27.089Z,100.00
2022-10-23T08:08:53.649Z,100.00
2022-10-23T08:11:25.807Z,100.00
2022-10-23T08:13:53.451Z,100.00
2022-10-23T08:16:20.231Z,100.00
2022-10-23T08:18:48.308Z,100.00
2022-10-23T08:21:15.674Z,100.00
2022-10-23T08:23:42.972Z,100.00
2022-10-23T08:26:10.386Z,100.00
2022-10-23T08:28:37.173Z,100.00
2022-10-23T08:31:15.484Z,100.00
2022-10-23T08:33:43.050Z,100.00
2022-10-23T08:36:19.288Z,100.00
2022-10-23T08:38:46.106Z,100.00
2022-10-23T08:41:36.625Z,100.00
2022-10-23T08:44:21.152Z,100.00
2022-10-23T08:47:08.728Z,100.00
2022-10-23T08:49:56.665Z,100.00
2022-10-23T08:52:35.637Z,100.00
2022-10-23T08:55:21.584Z,100.00
2022-10-23T08:57:53.838Z,100.00
2022-10-23T09:00:20.565Z,100.00
2022-10-23T09:02:49.348Z,100.00
2022-10-23T09:05:36.041Z,100.00
2022-10-23T09:08:08.867Z,100.00
2022-10-23T09:11:01.648Z,100.00
2022-10-23T09:14:05.442Z,100.00
2022-10-23T09:16:57.757Z,100.00
2022-10-23T09:19:27.291Z,100.00
2022-10-23T09:21:54.931Z,100.00
2022-10-23T09:24:23.994Z,100.00
2022-10-23T09:26:53.193Z,100.00
2022-10-23T09:29:32.816Z,100.00
2022-10-23T09:32:04.723Z,100.00
2022-10-23T09:34:32.753Z,100.00
2022-10-23T09:37:02.005Z,100.00
2022-10-23T09:39:36.165Z,100.00
2022-10-23T09:42:23.352Z,100.00
2022-10-23T09:44:53.177Z,100.00
2022-10-23T09:47:24.404Z,100.00
2022-10-23T09:49:53.340Z,100.00
2022-10-23T09:52:23.795Z,100.00
2022-10-23T09:54:53.529Z,100.00
2022-10-23T09:57:20.006Z,100.00
2022-10-23T09:59:54.953Z,100.00
2022-10-23T10:02:33.308Z,100.00
2022-10-23T10:05:00.403Z,100.00
2022-10-23T10:07:32.174Z,100.00
2022-10-23T10:10:01.247Z,100.00
2022-10-23T10:12:39.785Z,100.00
2022-10-23T10:15:24.596Z,100.00
2022-10-23T10:17:56.772Z,100.00
2022-10-23T10:20:48.155Z,100.00
2022-10-23T10:23:26.830Z,100.00
2022-10-23T10:25:59.525Z,100.00
2022-10-23T10:28:44.422Z,97.14
2022-10-23T10:31:23.737Z,99.97
2022-10-23T10:34:27.858Z,95.05
2022-10-23T10:37:13.627Z,92.48
2022-10-23T10:39:54.425Z,92.43
2022-10-23T10:43:07.152Z,91.74
2022-10-23T10:45:38.426Z,87.14
2022-10-23T10:48:27.698Z,88.68
2022-10-23T10:50:59.807Z,85.38
2022-10-23T10:54:00.306Z,85.51
2022-10-23T10:56:29.257Z,88.43
2022-10-23T10:58:59.642Z,86.71
2022-10-23T11:01:32.520Z,78.60
2022-10-23T11:04:11.228Z,78.72
2022-10-23T11:06:38.081Z,78.55
2022-10-23T11:09:20.707Z,78.78
2022-10-23T11:11:48.694Z,75.50
2022-10-23T11:14:23.574Z,75.20
2022-10-23T11:16:51.735Z,76.43
2022-10-23T11:19:31.086Z,78.50
2022-10-23T11:22:12.667Z,74.24
2022-10-23T11:25:06.827Z,73.40
2022-10-23T11:27:42.853Z,73.70
2022-10-23T11:30:25.559Z,72.85
2022-10-23T11:33:01.151Z,70.96
2022-10-23T11:36:00.414Z,72.92
2022-10-23T11:38:30.505Z,72.68
2022-10-23T11:41:23.618Z,71.91
2022-10-23T11:43:55.499Z,71.95
2022-10-23T11:46:21.922Z,73.42
2022-10-23T11:48:49.073Z,70.99
2022-10-23T11:51:39.540Z,71.44
2022-10-23T11:54:12.201Z,70.24
2022-10-23T11:57:11.546Z,69.85
2022-10-23T11:59:47.292Z,70.55
2022-10-23T12:02:20.283Z,70.22
2022-10-23T12:04:49.569Z,70.45
2022-10-23T12:07:28.111Z,69.15
2022-10-23T12:09:58.199Z,71.08
2022-10-23T12:12:30.757Z,70.07
2022-10-23T12:15:19.871Z,70.81
2022-10-23T12:17:47.977Z,69.26
2022-10-23T12:20:14.363Z,68.68
2022-10-23T12:22:52.996Z,69.63
2022-10-23T12:25:34.056Z,69.14
2022-10-23T12:28:09.148Z,70.00
2022-10-23T12:30:43.430Z,69.30
2022-10-23T12:33:22.238Z,69.79
2022-10-23T12:36:09.873Z,70.13
2022-10-23T12:38:44.385Z,70.17
2022-10-23T12:41:18.356Z,72.34
2022-10-23T12:43:51.558Z,71.50
2022-10-23T12:46:32.181Z,72.05
2022-10-23T12:48:59.985Z,72.53
2022-10-23T12:51:29.854Z,71.67
2022-10-23T12:53:56.448Z,71.45
2022-10-23T12:56:24.880Z,71.90
2022-10-23T12:58:56.959Z,71.34
2022-10-23T13:01:32.143Z,71.05
2022-10-23T13:04:11.797Z,71.70
2022-10-23T13:06:39.401Z,71.19
2022-10-23T13:09:10.625Z,72.15
2022-10-23T13:11:37.397Z,71.16
2022-10-23T13:14:11.806Z,70.68
2022-10-23T13:16:38.291Z,71.70
2022-10-23T13:19:04.776Z,70.75
2022-10-23T13:21:32.605Z,70.67
2022-10-23T13:23:59.310Z,69.84
2022-10-23T13:26:35.943Z,70.44
2022-10-23T13:29:06.137Z,70.62
2022-10-23T13:31:36.236Z,71.45
2022-10-23T13:34:02.621Z,71.86
2022-10-23T13:36:31.199Z,71.58
2022-10-23T13:39:09.460Z,71.38
2022-10-23T13:41:40.260Z,71.58
2022-10-23T13:44:07.227Z,70.96
2022-10-23T13:46:33.772Z,70.56
2022-10-23T13:49:00.486Z,71.10
2022-10-23T13:51:32.610Z,71.33
2022-10-23T13:53:59.153Z,71.45
2022-10-23T13:56:27.384Z,72.18
2022-10-23T13:58:53.896Z,70.88
2022-10-23T14:01:29.949Z,71.98
2022-10-23T14:03:58.125Z,71.55
2022-10-23T14:06:24.766Z,72.34
2022-10-23T14:08:51.702Z,72.01
2022-10-23T14:11:19.824Z,71.97
2022-10-23T14:13:47.226Z,71.69
2022-10-23T14:16:15.565Z,72.35
2022-10-23T14:18:42.053Z,72.46
2022-10-23T14:21:13.503Z,72.21
2022-10-23T14:23:40.033Z,73.03
2022-10-23T14:26:15.452Z,72.45
2022-10-23T14:28:42.351Z,73.41
2022-10-23T14:31:14.229Z,73.17
2022-10-23T14:33:41.197Z,73.21
2022-10-23T14:36:08.066Z,72.90
2022-10-23T14:38:34.721Z,73.23
2022-10-23T14:41:01.258Z,72.41
2022-10-23T14:43:27.791Z,72.34
2022-10-23T14:45:54.272Z,72.90
2022-10-23T14:48:20.759Z,72.38
2022-10-23T14:50:49.312Z,72.53
2022-10-23T14:53:16.334Z,72.56
2022-10-23T14:55:42.886Z,72.77
2022-10-23T14:58:09.446Z,72.72
2022-10-23T15:00:35.930Z,73.20
2022-10-23T15:03:02.474Z,72.89
2022-10-23T15:05:28.993Z,73.27
2022-10-23T15:07:56.364Z,74.11
2022-10-23T15:10:22.897Z,72.96
2022-10-23T15:12:49.648Z,73.61
2022-10-23T15:15:16.356Z,74.65
2022-10-23T15:17:42.846Z,73.92
2022-10-23T15:20:09.912Z,73.32
2022-10-23T15:22:36.623Z,74.69
2022-10-23T15:25:03.262Z,74.01
2022-10-23T15:30:05.942Z,74.70
2022-10-23T15:32:32.492Z,74.49
2022-10-23T15:35:02.088Z,74.50
2022-10-23T15:37:28.643Z,74.85
2022-10-23T15:39:59.741Z,75.53
2022-10-23T15:42:28.655Z,75.71
2022-10-23T15:44:55.286Z,76.17
2022-10-23T15:47:21.786Z,75.85
2022-10-23T15:49:48.833Z,76.68
2022-10-23T15:52:15.378Z,76.25
2022-10-23T15:54:41.930Z,76.67
2022-10-23T15:57:08.525Z,78.26
2022-10-23T15:59:35.063Z,77.59
2022-10-23T16:02:01.762Z,77.58
2022-10-23T16:04:28.761Z,77.56
2022-10-23T16:06:56.042Z,78.33
2022-10-23T16:09:22.654Z,78.01
2022-10-23T16:11:49.214Z,78.28
2022-10-23T16:14:17.249Z,78.14
2022-10-23T16:16:43.828Z,78.59
2022-10-23T16:19:11.283Z,79.41
2022-10-23T16:21:37.859Z,79.68
2022-10-23T16:24:06.367Z,81.37
2022-10-23T16:26:33.692Z,82.38
2022-10-23T16:29:02.954Z,82.53
2022-10-23T16:31:29.846Z,83.71
2022-10-23T16:34:02.763Z,83.91
2022-10-23T16:36:29.565Z,85.81
2022-10-23T16:38:56.385Z,86.63
2022-10-23T16:41:22.947Z,87.49
2022-10-23T16:43:49.820Z,89.95
2022-10-23T16:46:21.285Z,91.82
2022-10-23T16:48:50.050Z,93.57
2022-10-23T16:51:19.130Z,94.87
2022-10-23T16:53:46.258Z,97.52
2022-10-23T16:56:15.393Z,99.73
2022-10-23T16:58:42.616Z,98.55
2022-10-23T17:01:38.484Z,94.57
2022-10-23T17:04:06.191Z,94.67
2022-10-23T17:06:33.254Z,95.97
2022-10-23T17:09:00.893Z,95.61
2022-10-23T17:11:29.501Z,96.15
2022-10-23T17:13:59.206Z,97.94
2022-10-23T17:16:52.517Z,96.98
2022-10-23T17:19:43.387Z,98.02
2022-10-23T17:22:12.605Z,98.41
2022-10-23T17:24:40.353Z,99.56
2022-10-23T17:27:06.970Z,99.47
2022-10-23T17:29:33.763Z,99.72
2022-10-23T17:32:00.259Z,99.47
2022-10-23T17:34:26.813Z,100.00
2022-10-23T17:36:54.795Z,99.39
2022-10-23T17:39:24.410Z,98.97
2022-10-23T17:41:51.530Z,99.36
2022-10-23T17:44:18.030Z,98.96
2022-10-23T17:46:44.577Z,98.58
2022-10-23T17:49:11.832Z,97.60
2022-10-23T17:51:38.635Z,97.72
2022-10-23T17:54:08.380Z,98.07
2022-10-23T17:56:36.545Z,97.65
2022-10-23T17:59:06.755Z,97.49
2022-10-23T18:01:33.711Z,98.26
2022-10-23T18:04:02.307Z,98.29
2022-10-23T18:06:34.988Z,97.97
2022-10-23T18:09:03.207Z,98.02
2022-10-23T18:11:32.335Z,98.03
2022-10-23T18:16:26.879Z,99.44
2022-10-23T18:18:53.584Z,100.00
2022-10-23T18:21:22.196Z,100.00
2022-10-23T18:23:49.809Z,100.00
2022-10-23T18:26:25.330Z,100.00
2022-10-23T18:28:56.817Z,100.00
2022-10-23T18:31:25.148Z,100.00
2022-10-23T18:33:59.182Z,100.00
2022-10-23T18:36:28.318Z,100.00
2022-10-23T18:41:23.787Z,100.00
2022-10-23T18:43:54.106Z,100.00
2022-10-23T18:46:21.163Z,100.00
2022-10-23T18:48:48.239Z,100.00
2022-10-23T18:51:21.002Z,99.69
2022-10-23T18:53:48.327Z,99.98
2022-10-23T18:56:15.569Z,99.44
2022-10-23T18:58:47.488Z,98.78
2022-10-23T19:01:14.143Z,99.53
2022-10-23T19:03:40.712Z,98.65
2022-10-23T19:06:08.245Z,99.37
2022-10-23T19:08:42.224Z,100.00
2022-10-23T19:11:09.800Z,99.43
2022-10-23T19:13:39.110Z,100.00
2022-10-23T19:16:26.536Z,100.00
2022-10-23T19:18:56.901Z,100.00
2022-10-23T19:21:34.055Z,100.00
2022-10-23T19:24:07.742Z,100.00
2022-10-23T19:26:38.823Z,100.00
2022-10-23T19:29:07.398Z,100.00
2022-10-23T19:31:34.414Z,100.00
2022-10-23T19:34:00.944Z,100.00
2022-10-23T19:36:27.471Z,100.00
2022-10-23T19:38:53.972Z,100.00
2022-10-23T19:41:20.526Z,100.00
2022-10-23T19:43:47.057Z,100.00
2022-10-23T19:46:13.545Z,100.00
2022-10-23T19:48:44.499Z,100.00
2022-10-23T19:51:16.753Z,100.00
2022-10-23T19:53:43.407Z,100.00
2022-10-23T19:56:11.453Z,100.00
2022-10-23T19:58:38.399Z,100.00
2022-10-23T20:01:13.303Z,100.00
2022-10-23T20:03:41.584Z,100.00
2022-10-23T20:06:20.114Z,100.00
2022-10-23T20:08:47.379Z,100.00
2022-10-23T20:11:23.519Z,100.00
2022-10-23T20:13:50.432Z,99.52
2022-10-23T20:16:25.024Z,99.29
2022-10-23T20:18:51.664Z,98.77
2022-10-23T20:21:19.196Z,98.81
2022-10-23T20:23:45.858Z,100.00
2022-10-23T20:26:16.009Z,99.30
2022-10-23T20:28:47.247Z,100.00
2022-10-23T20:31:15.557Z,100.00
2022-10-23T20:33:42.685Z,100.00
2022-10-23T20:36:21.275Z,100.00
2022-10-23T20:38:47.842Z,100.00
2022-10-23T20:41:14.311Z,100.00
2022-10-23T20:43:40.831Z,100.00
2022-10-23T20:46:09.291Z,100.00
2022-10-23T20:48:39.844Z,100.00
2022-10-23T20:51:15.057Z,100.00
2022-10-23T20:53:42.519Z,100.00
2022-10-23T20:56:12.174Z,100.00
2022-10-23T20:58:38.758Z,100.00
2022-10-23T21:01:07.061Z,100.00
2022-10-23T21:03:34.003Z,100.00
2022-10-23T21:06:12.833Z,100.00
2022-10-23T21:08:40.152Z,100.00
2022-10-23T21:11:08.380Z,100.00
2022-10-23T21:13:35.165Z,100.00
2022-10-23T21:16:11.806Z,100.00
2022-10-23T21:18:46.076Z,100.00
2022-10-23T21:21:19.090Z,100.00
2022-10-23T21:23:46.907Z,100.00
2022-10-23T21:26:13.967Z,100.00
2022-10-23T21:28:47.307Z,100.00
2022-10-23T21:31:23.832Z,100.00
2022-10-23T21:33:50.353Z,100.00
2022-10-23T21:36:19.763Z,100.00
2022-10-23T21:38:49.330Z,100.00
2022-10-23T21:41:19.638Z,99.97
2022-10-23T21:43:46.582Z,99.22
2022-10-23T21:46:16.579Z,98.71
2022-10-23T21:48:43.885Z,98.21
2022-10-23T21:51:24.369Z,99.12
2022-10-23T21:53:52.252Z,98.83
2022-10-23T21:56:24.702Z,98.76
2022-10-23T21:58:51.805Z,98.49
2022-10-23T22:01:18.392Z,97.99
2022-10-23T22:03:45.001Z,98.53
2022-10-23T22:06:20.318Z,98.31
2022-10-23T22:08:47.643Z,97.94
2022-10-23T22:11:15.261Z,97.84
2022-10-23T22:13:42.816Z,98.11
2022-10-23T22:16:09.787Z,97.43
2022-10-23T22:18:37.477Z,97.42
2022-10-23T22:21:08.869Z,96.87
2022-10-23T22:23:36.515Z,97.94
2022-10-23T22:26:08.138Z,97.92
2022-10-23T22:28:34.643Z,97.32
2022-10-23T22:31:01.611Z,97.11
2022-10-23T22:33:29.040Z,97.09
2022-10-23T22:36:03.209Z,97.58
2022-10-23T22:38:32.045Z,97.14
2022-10-23T22:41:02.533Z,96.55
2022-10-23T22:43:29.565Z,96.87
2022-10-23T22:46:04.498Z,97.05
2022-10-23T22:48:31.253Z,97.24
2022-10-23T22:50:57.754Z,96.74
2022-10-23T22:53:24.337Z,97.60
2022-10-23T22:55:50.848Z,97.02
2022-10-23T22:58:17.895Z,97.24
2022-10-23T23:00:44.489Z,97.20
2022-10-23T23:03:11.288Z,97.56
2022-10-23T23:05:43.617Z,97.95
2022-10-23T23:08:10.439Z,97.96
2022-10-23T23:10:37.258Z,97.89
2022-10-23T23:13:04.166Z,98.03
2022-10-23T23:15:30.753Z,97.93
2022-10-23T23:17:57.520Z,98.31
2022-10-23T23:20:24.138Z,98.06
2022-10-23T23:22:50.639Z,98.12
2022-10-23T23:25:17.255Z,99.09
2022-10-23T23:27:44.112Z,98.83
2022-10-23T23:30:11.014Z,98.45
2022-10-23T23:32:37.640Z,99.10
2022-10-23T23:35:04.298Z,98.93
2022-10-23T23:37:30.898Z,98.79
2022-10-23T23:39:57.551Z,100.00
2022-10-23T23:42:24.052Z,99.42
2022-10-23T23:45:02.479Z,100.00
2022-10-23T23:47:29.198Z,100.00
2022-10-23T23:49:55.778Z,100.00
2022-10-23T23:52:22.352Z,100.00
2022-10-23T23:54:48.830Z,100.00
2022-10-23T23:57:15.331Z,100.00
2022-10-23T23:59:42.272Z,100.00
